createdAt,value
2019-05-25T00:00:56.512Z,97341.27
2019-05-25T00:03:26.947Z,97342.48
2019-05-25T00:05:56.945Z,97346.17
2019-05-25T00:08:27.262Z,97345.93
2019-05-25T00:10:57.289Z,97343.25
2019-05-25T00:13:27.678Z,97343.25
2019-05-25T00:15:57.781Z,97340.79
2019-05-25T00:18:28.024Z,97339.84
2019-05-25T00:20:58.241Z,97334.23
2019-05-25T00:23:28.604Z,97341.02
2019-05-25T00:25:58.738Z,97345.35
2019-05-25T00:28:29.286Z,97337.80
2019-05-25T00:30:59.207Z,97330.73
2019-05-25T00:33:29.554Z,97330.02
2019-05-25T00:35:59.765Z,97325.80
2019-05-25T00:38:29.792Z,97328.67
2019-05-25T00:41:00.027Z,97323.27
2019-05-25T00:43:30.292Z,97325.66
2019-05-25T00:46:00.462Z,97324.88
2019-05-25T00:48:30.767Z,97332.66
2019-05-25T00:51:01.034Z,97332.30
2019-05-25T00:53:31.283Z,97331.82
2019-05-25T00:56:01.642Z,97325.74
2019-05-25T00:58:31.802Z,97320.16
2019-05-25T01:01:02.025Z,97322.33
2019-05-25T01:03:32.313Z,97323.02
2019-05-25T01:06:02.435Z,97322.17
2019-05-25T01:08:32.954Z,97323.70
2019-05-25T01:11:02.955Z,97328.44
2019-05-25T01:13:33.199Z,97328.94
2019-05-25T01:16:03.625Z,97325.72
2019-05-25T01:18:33.741Z,97324.73
2019-05-25T01:21:04.202Z,97328.11
2019-05-25T01:23:34.108Z,97321.84
2019-05-25T01:26:04.525Z,97323.02
2019-05-25T01:28:37.598Z,97323.38
2019-05-25T01:31:06.433Z,97323.06
2019-05-25T01:33:36.435Z,97320.66
2019-05-25T01:36:06.366Z,97324.39
2019-05-25T01:38:36.787Z,97314.61
2019-05-25T01:41:06.237Z,97317.61
2019-05-25T01:43:35.843Z,97311.76
2019-05-25T01:46:06.037Z,97320.70
2019-05-25T01:48:36.373Z,97315.64
2019-05-25T01:51:06.497Z,97317.64
2019-05-25T01:53:36.685Z,97320.51
2019-05-25T01:56:06.636Z,97314.12
2019-05-25T01:58:37.007Z,97315.63
2019-05-25T02:01:06.778Z,97316.47
2019-05-25T02:03:36.835Z,97317.31
2019-05-25T02:06:06.922Z,97317.66
2019-05-25T02:08:36.990Z,97321.62
2019-05-25T02:11:06.943Z,97321.27
2019-05-25T02:13:36.949Z,97316.53
2019-05-25T02:16:06.971Z,97320.08
2019-05-25T02:18:37.099Z,97321.73
2019-05-25T02:21:07.048Z,97328.03
2019-05-25T02:23:37.137Z,97323.94
2019-05-25T02:26:07.071Z,97320.09
2019-05-25T02:28:37.487Z,97324.13
2019-05-25T02:31:07.340Z,97319.46
2019-05-25T02:33:37.263Z,97323.59
2019-05-25T02:36:07.340Z,97320.89
2019-05-25T02:38:38.271Z,97319.36
2019-05-25T02:41:07.728Z,97315.55
2019-05-25T02:43:37.599Z,97317.01
2019-05-25T02:46:07.402Z,97318.86
2019-05-25T02:48:37.518Z,97321.95
2019-05-25T02:51:07.472Z,97325.02
2019-05-25T02:53:37.556Z,97330.08
2019-05-25T02:56:07.903Z,97329.53
2019-05-25T02:58:37.847Z,97326.70
2019-05-25T03:01:07.686Z,97327.69
2019-05-25T03:03:37.779Z,97324.09
2019-05-25T03:06:08.286Z,97321.58
2019-05-25T03:08:39.580Z,97316.28
2019-05-25T03:11:09.298Z,97320.39
2019-05-25T03:13:39.143Z,97319.86
2019-05-25T03:16:08.539Z,97325.20
2019-05-25T03:18:38.016Z,97325.20
2019-05-25T03:21:08.253Z,97332.70
2019-05-25T03:23:38.229Z,97329.11
2019-05-25T03:26:08.098Z,97329.81
2019-05-25T03:28:38.280Z,97330.61
2019-05-25T03:31:08.642Z,97331.09
2019-05-25T03:33:38.265Z,97335.95
2019-05-25T03:36:08.169Z,97327.27
2019-05-25T03:38:38.450Z,97327.05
2019-05-25T03:41:08.516Z,97331.15
2019-05-25T03:43:38.744Z,97334.70
2019-05-25T03:46:08.473Z,97332.45
2019-05-25T03:48:38.916Z,97329.25
2019-05-25T03:51:08.680Z,97337.34
2019-05-25T03:53:38.819Z,97343.77
2019-05-25T03:56:08.722Z,97351.16
2019-05-25T03:58:38.897Z,97347.95
2019-05-25T04:01:10.356Z,97350.59
2019-05-25T04:03:39.772Z,97350.42
2019-05-25T04:06:09.143Z,97352.95
2019-05-25T04:08:39.148Z,97351.58
2019-05-25T04:11:08.969Z,97351.58
2019-05-25T04:13:39.169Z,97360.05
2019-05-25T04:16:09.067Z,97364.77
2019-05-25T04:18:39.243Z,97351.05
2019-05-25T04:21:09.336Z,97351.05
2019-05-25T04:23:39.281Z,97364.22
2019-05-25T04:26:22.042Z,97364.05
2019-05-25T04:28:41.332Z,97365.55
2019-05-25T04:31:10.726Z,97364.87
2019-05-25T04:33:40.116Z,97361.80
2019-05-25T04:36:10.485Z,97368.88
2019-05-25T04:38:39.884Z,97368.88
2019-05-25T04:41:09.445Z,97364.11
2019-05-25T04:43:39.510Z,97368.93
2019-05-25T04:46:09.492Z,97368.83
2019-05-25T04:48:39.655Z,97367.45
2019-05-25T04:51:09.590Z,97365.94
2019-05-25T04:53:39.633Z,97360.52
2019-05-25T04:56:09.594Z,97366.47
2019-05-25T04:58:39.759Z,97367.71
2019-05-25T05:01:09.702Z,97365.54
2019-05-25T05:03:39.806Z,97364.54
2019-05-25T05:06:09.728Z,97369.05
2019-05-25T05:08:40.087Z,97370.51
2019-05-25T05:11:09.847Z,97369.72
2019-05-25T05:13:39.942Z,97375.62
2019-05-25T05:16:09.885Z,97366.89
2019-05-25T05:18:40.067Z,97360.24
2019-05-25T05:21:09.964Z,97360.24
2019-05-25T05:23:40.114Z,97367.77
2019-05-25T05:26:10.108Z,97375.34
2019-05-25T05:28:40.319Z,97373.73
2019-05-25T05:31:22.660Z,97370.83
2019-05-25T05:33:41.403Z,97374.09
2019-05-25T05:36:12.035Z,97380.41
2019-05-25T05:38:42.466Z,97381.83
2019-05-25T05:41:13.785Z,97379.13
2019-05-25T05:43:45.214Z,97383.53
2019-05-25T05:46:16.683Z,97390.94
2019-05-25T05:48:49.376Z,97392.88
2019-05-25T05:51:20.635Z,97392.69
2019-05-25T05:53:53.071Z,97385.67
2019-05-25T05:56:23.524Z,97388.55
2019-05-25T05:58:53.886Z,97391.30
2019-05-25T06:01:23.257Z,97393.14
2019-05-25T06:03:52.632Z,97390.48
2019-05-25T06:06:22.022Z,97394.98
2019-05-25T06:08:51.477Z,97389.42
2019-05-25T06:11:20.861Z,97396.45
2019-05-25T06:13:50.243Z,97392.23
2019-05-25T06:16:19.663Z,97392.23
2019-05-25T06:18:49.065Z,97386.83
2019-05-25T06:21:18.449Z,97385.84
2019-05-25T06:23:47.821Z,97387.23
2019-05-25T06:26:17.281Z,97396.25
2019-05-25T06:28:46.673Z,97398.27
2019-05-25T06:31:16.049Z,97397.13
2019-05-25T06:33:45.513Z,97392.17
2019-05-25T06:36:14.897Z,97394.31
2019-05-25T06:38:44.325Z,97405.81
2019-05-25T06:41:13.712Z,97404.86
2019-05-25T06:43:43.093Z,97400.59
2019-05-25T06:46:12.530Z,97402.36
2019-05-25T06:48:41.909Z,97394.63
2019-05-25T06:51:11.396Z,97400.85
2019-05-25T06:53:41.477Z,97402.85
2019-05-25T06:56:11.432Z,97389.83
2019-05-25T06:58:40.804Z,97404.36
2019-05-25T07:01:10.195Z,97395.09
2019-05-25T07:03:39.585Z,97392.63
2019-05-25T07:06:08.984Z,97388.47
2019-05-25T07:08:38.493Z,97396.13
2019-05-25T07:11:08.636Z,97395.20
2019-05-25T07:13:38.842Z,97398.09
2019-05-25T07:16:09.080Z,97401.40
2019-05-25T07:18:39.256Z,97397.52
2019-05-25T07:21:09.580Z,97405.71
2019-05-25T07:23:39.776Z,97401.55
2019-05-25T07:26:10.140Z,97394.45
2019-05-25T07:28:40.659Z,97394.59
2019-05-25T07:31:11.214Z,97388.28
2019-05-25T07:33:40.784Z,97387.86
2019-05-25T07:36:11.078Z,97384.43
2019-05-25T07:38:41.369Z,97382.00
2019-05-25T07:41:11.725Z,97387.74
2019-05-25T07:43:41.787Z,97381.81
2019-05-25T07:46:12.095Z,97382.02
2019-05-25T07:48:42.338Z,97388.55
2019-05-25T07:51:12.624Z,97389.50
2019-05-25T07:53:42.988Z,97383.23
2019-05-25T07:56:13.196Z,97384.38
2019-05-25T07:58:43.245Z,97384.38
2019-05-25T08:01:13.264Z,97391.97
2019-05-25T08:03:43.291Z,97387.42
2019-05-25T08:06:13.324Z,97392.38
2019-05-25T08:08:43.292Z,97392.14
2019-05-25T08:11:13.442Z,97393.50
2019-05-25T08:13:43.314Z,97384.34
2019-05-25T08:16:13.379Z,97387.78
2019-05-25T08:18:43.463Z,97377.02
2019-05-25T08:21:13.528Z,97380.47
2019-05-25T08:23:43.485Z,97380.73
2019-05-25T08:26:13.562Z,97377.36
2019-05-25T08:28:43.696Z,97386.13
2019-05-25T08:31:13.799Z,97384.05
2019-05-25T08:33:43.750Z,97385.35
2019-05-25T08:36:13.727Z,97375.66
2019-05-25T08:38:43.795Z,97373.15
2019-05-25T08:41:13.881Z,97369.23
2019-05-25T08:43:43.789Z,97376.70
2019-05-25T08:46:13.973Z,97377.05
2019-05-25T08:48:43.933Z,97377.84
2019-05-25T08:51:14.007Z,97383.84
2019-05-25T08:53:46.579Z,97377.63
2019-05-25T08:56:15.055Z,97380.10
2019-05-25T08:58:48.468Z,97383.80
2019-05-25T09:01:15.635Z,97387.91
2019-05-25T09:03:45.123Z,97383.78
2019-05-25T09:06:14.784Z,97384.05
2019-05-25T09:08:44.209Z,97381.50
2019-05-25T09:11:14.384Z,97378.43
2019-05-25T09:13:44.264Z,97381.39
2019-05-25T09:16:14.320Z,97376.42
2019-05-25T09:18:44.403Z,97385.48
2019-05-25T09:21:14.624Z,97385.66
2019-05-25T09:23:44.447Z,97374.36
2019-05-25T09:26:14.787Z,97375.78
2019-05-25T09:28:44.601Z,97380.19
2019-05-25T09:31:14.585Z,97370.93
2019-05-25T09:33:44.614Z,97379.73
2019-05-25T09:36:14.731Z,97379.08
2019-05-25T09:38:44.664Z,97381.84
2019-05-25T09:41:14.820Z,97379.91
2019-05-25T09:43:44.768Z,97372.64
2019-05-25T09:46:14.845Z,97377.41
2019-05-25T09:48:44.938Z,97379.28
2019-05-25T09:51:16.105Z,97376.81
2019-05-25T09:53:45.557Z,97374.83
2019-05-25T09:56:14.934Z,97366.38
2019-05-25T09:58:44.927Z,97371.59
2019-05-25T10:01:15.043Z,97363.21
2019-05-25T10:03:44.947Z,97374.39
2019-05-25T10:06:15.297Z,97362.45
2019-05-25T10:08:45.160Z,97356.92
2019-05-25T10:11:15.213Z,97370.75
2019-05-25T10:13:45.194Z,97363.36
2019-05-25T10:16:15.215Z,97355.29
2019-05-25T10:18:45.308Z,97356.82
2019-05-25T10:21:15.407Z,97358.39
2019-05-25T10:23:45.321Z,97352.82
2019-05-25T10:26:15.448Z,97352.75
2019-05-25T10:28:45.487Z,97354.16
2019-05-25T10:31:15.500Z,97343.17
2019-05-25T10:33:45.535Z,97335.36
2019-05-25T10:36:15.593Z,97335.36
2019-05-25T10:38:45.717Z,97344.89
2019-05-25T10:41:15.646Z,97343.58
2019-05-25T10:43:45.600Z,97332.98
2019-05-25T10:46:15.673Z,97335.63
2019-05-25T10:48:45.684Z,97330.91
2019-05-25T10:51:15.891Z,97331.69
2019-05-25T10:53:45.713Z,97315.91
2019-05-25T10:56:15.844Z,97325.94
2019-05-25T10:58:45.921Z,97316.49
2019-05-25T11:01:15.943Z,97320.67
2019-05-25T11:03:45.961Z,97322.73
2019-05-25T11:06:16.112Z,97318.91
2019-05-25T11:08:46.405Z,97310.05
2019-05-25T11:11:16.165Z,97311.64
2019-05-25T11:13:46.122Z,97301.78
2019-05-25T11:16:16.100Z,97303.63
2019-05-25T11:18:46.255Z,97299.48
2019-05-25T11:21:16.330Z,97301.13
2019-05-25T11:23:46.268Z,97296.59
2019-05-25T11:28:49.335Z,97291.48
2019-05-25T11:31:18.740Z,97291.41
2019-05-25T11:33:48.132Z,97290.07
2019-05-25T11:36:17.588Z,97286.45
2019-05-25T11:38:46.972Z,97279.56
2019-05-25T11:41:16.690Z,97287.33
2019-05-25T11:43:46.573Z,97287.80
2019-05-25T11:46:16.759Z,97290.37
2019-05-25T11:48:46.784Z,97293.09
2019-05-25T11:51:16.853Z,97288.50
2019-05-25T11:53:46.723Z,97282.84
2019-05-25T11:56:16.811Z,97283.66
2019-05-25T11:58:47.857Z,97283.66
2019-05-25T12:01:17.816Z,97272.88
2019-05-25T12:03:47.196Z,97271.67
2019-05-25T12:06:16.997Z,97266.97
2019-05-25T12:08:47.040Z,97265.53
2019-05-25T12:11:17.027Z,97267.42
2019-05-25T12:13:47.002Z,97267.81
2019-05-25T12:16:17.222Z,97261.20
2019-05-25T12:18:47.126Z,97267.87
2019-05-25T12:21:17.192Z,97253.50
2019-05-25T12:23:46.573Z,97257.24
2019-05-25T12:26:16.476Z,97255.11
2019-05-25T12:28:46.783Z,97260.15
2019-05-25T12:31:16.965Z,97262.36
2019-05-25T12:33:47.321Z,97246.41
2019-05-25T12:36:17.307Z,97246.41
2019-05-25T12:38:47.493Z,97257.65
2019-05-25T12:41:17.517Z,97257.11
2019-05-25T12:43:47.526Z,97260.38
2019-05-25T12:46:17.436Z,97259.83
2019-05-25T12:48:47.655Z,97255.42
2019-05-25T12:51:18.028Z,97246.23
2019-05-25T12:53:47.689Z,97253.44
2019-05-25T12:56:17.591Z,97253.77
2019-05-25T12:58:50.147Z,97245.91
2019-05-25T13:01:18.866Z,97247.24
2019-05-25T13:03:48.309Z,97237.08
2019-05-25T13:06:18.489Z,97238.44
2019-05-25T13:08:48.063Z,97234.02
2019-05-25T13:11:17.978Z,97240.02
2019-05-25T13:13:48.051Z,97233.94
2019-05-25T13:16:18.102Z,97232.09
2019-05-25T13:18:48.232Z,97228.19
2019-05-25T13:21:18.141Z,97226.83
2019-05-25T13:23:48.244Z,97222.84
2019-05-25T13:26:18.699Z,97210.78
2019-05-25T13:28:48.773Z,97215.47
2019-05-25T13:31:18.722Z,97207.97
2019-05-25T13:33:48.805Z,97208.05
2019-05-25T13:36:18.731Z,97208.11
2019-05-25T13:38:48.812Z,97200.77
2019-05-25T13:41:18.755Z,97209.61
2019-05-25T13:43:50.183Z,97210.65
2019-05-25T13:46:19.668Z,97213.00
2019-05-25T13:48:49.040Z,97215.27
2019-05-25T13:51:18.890Z,97213.88
2019-05-25T13:53:48.932Z,97209.25
2019-05-25T13:56:18.828Z,97209.16
2019-05-25T13:58:48.894Z,97204.98
2019-05-25T14:01:28.107Z,97208.38
2019-05-25T14:03:50.026Z,97202.02
2019-05-25T14:06:19.411Z,97206.32
2019-05-25T14:08:49.011Z,97207.30
2019-05-25T14:11:18.924Z,97208.45
2019-05-25T14:13:48.979Z,97213.11
2019-05-25T14:16:18.938Z,97211.47
2019-05-25T14:18:48.992Z,97215.56
2019-05-25T14:21:19.015Z,97205.70
2019-05-25T14:23:49.069Z,97207.48
2019-05-25T14:26:19.011Z,97215.40
2019-05-25T14:28:49.098Z,97217.08
2019-05-25T14:31:19.109Z,97218.75
2019-05-25T14:33:49.154Z,97218.13
2019-05-25T14:36:19.070Z,97214.27
2019-05-25T14:38:49.229Z,97217.34
2019-05-25T14:41:19.229Z,97222.39
2019-05-25T14:43:49.332Z,97215.67
2019-05-25T14:46:27.354Z,97206.80
2019-05-25T14:48:50.357Z,97213.69
2019-05-25T14:51:19.764Z,97220.05
2019-05-25T14:53:49.418Z,97220.77
2019-05-25T14:56:19.337Z,97224.21
2019-05-25T14:58:49.629Z,97226.34
2019-05-25T15:01:19.595Z,97234.14
2019-05-25T15:03:49.583Z,97249.50
2019-05-25T15:06:21.021Z,97253.66
2019-05-25T15:08:51.556Z,97253.66
2019-05-25T15:11:21.007Z,97257.16
2019-05-25T15:13:50.415Z,97265.33
2019-05-25T15:16:19.812Z,97269.00
2019-05-25T15:18:49.835Z,97263.11
2019-05-25T15:21:20.189Z,97268.77
2019-05-25T15:23:49.994Z,97274.73
2019-05-25T15:26:19.877Z,97274.73
2019-05-25T15:28:49.989Z,97275.45
2019-05-25T15:31:19.965Z,97288.47
2019-05-25T15:33:50.164Z,97310.72
2019-05-25T15:36:20.109Z,97303.16
2019-05-25T15:38:50.303Z,97322.16
2019-05-25T15:41:20.168Z,97332.79
2019-05-25T15:43:50.253Z,97315.50
2019-05-25T15:46:20.204Z,97304.75
2019-05-25T15:48:50.269Z,97313.34
2019-05-25T15:51:20.730Z,97320.92
2019-05-25T15:53:50.312Z,97322.69
2019-05-25T15:56:20.286Z,97325.05
2019-05-25T15:58:50.460Z,97324.02
2019-05-25T16:01:20.444Z,97324.02
2019-05-25T16:03:50.482Z,97329.59
2019-05-25T16:06:23.741Z,97320.46
2019-05-25T16:08:51.642Z,97327.78
2019-05-25T16:11:21.093Z,97324.69
2019-05-25T16:13:50.695Z,97328.45
2019-05-25T16:16:29.586Z,97328.75
2019-05-25T16:18:51.587Z,97310.18
2019-05-25T16:21:20.989Z,97311.17
2019-05-25T16:23:50.725Z,97303.78
2019-05-25T16:26:20.690Z,97303.78
2019-05-25T16:28:50.788Z,97316.28
2019-05-25T16:31:20.835Z,97319.11
2019-05-25T16:33:50.895Z,97313.09
2019-05-25T16:36:20.868Z,97319.15
2019-05-25T16:38:50.956Z,97323.88
2019-05-25T16:41:21.028Z,97326.34
2019-05-25T16:43:50.975Z,97320.66
2019-05-25T16:46:20.922Z,97316.69
2019-05-25T16:48:51.216Z,97322.80
2019-05-25T16:51:21.229Z,97323.73
2019-05-25T16:53:51.144Z,97324.48
2019-05-25T16:56:21.100Z,97327.54
2019-05-25T16:58:51.471Z,97317.96
2019-05-25T17:01:21.302Z,97315.15
2019-05-25T17:03:51.382Z,97304.42
2019-05-25T17:06:21.307Z,97313.37
2019-05-25T17:08:51.477Z,97309.41
2019-05-25T17:11:21.507Z,97303.67
2019-05-25T17:13:51.513Z,97295.93
2019-05-25T17:16:21.465Z,97295.93
2019-05-25T17:18:51.543Z,97294.69
2019-05-25T17:21:21.630Z,97285.11
2019-05-25T17:23:51.570Z,97271.69
2019-05-25T17:26:21.536Z,97285.59
2019-05-25T17:28:51.761Z,97283.64
2019-05-25T17:31:21.703Z,97280.94
2019-05-25T17:33:52.805Z,97274.95
2019-05-25T17:36:22.231Z,97278.42
2019-05-25T17:38:52.112Z,97275.09
2019-05-25T17:41:21.944Z,97270.14
2019-05-25T17:43:52.366Z,97269.12
2019-05-25T17:46:21.861Z,97278.44
2019-05-25T17:48:52.020Z,97274.16
2019-05-25T17:51:21.451Z,97277.30
2019-05-25T17:53:50.822Z,97275.94
2019-05-25T17:56:20.783Z,97276.86
2019-05-25T17:58:50.663Z,97279.17
2019-05-25T18:01:22.224Z,97277.69
2019-05-25T18:04:05.458Z,97276.72
2019-05-25T18:06:23.409Z,97277.78
2019-05-25T18:08:53.379Z,97274.92
2019-05-25T18:11:23.435Z,97275.11
2019-05-25T18:13:53.396Z,97280.30
2019-05-25T18:16:23.522Z,97270.14
2019-05-25T18:18:53.780Z,97277.44
2019-05-25T18:21:23.657Z,97274.31
2019-05-25T18:23:53.641Z,97283.78
2019-05-25T18:26:23.082Z,97286.77
2019-05-25T18:28:52.831Z,97291.07
2019-05-25T18:31:22.610Z,97291.38
2019-05-25T18:33:52.743Z,97291.52
2019-05-25T18:36:22.698Z,97296.83
2019-05-25T18:38:52.991Z,97303.22
2019-05-25T18:41:22.923Z,97306.61
2019-05-25T18:43:52.972Z,97316.75
2019-05-25T18:46:23.218Z,97314.52
2019-05-25T18:48:53.234Z,97320.99
2019-05-25T18:51:23.086Z,97329.92
2019-05-25T18:53:53.296Z,97339.05
2019-05-25T18:56:23.076Z,97335.34
2019-05-25T18:58:53.269Z,97338.14
2019-05-25T19:01:23.219Z,97342.88
2019-05-25T19:03:53.373Z,97341.30
2019-05-25T19:06:23.271Z,97339.27
2019-05-25T19:08:53.556Z,97347.19
2019-05-25T19:11:23.376Z,97353.19
2019-05-25T19:13:53.479Z,97359.67
2019-05-25T19:16:23.444Z,97360.64
2019-05-25T19:18:53.644Z,97367.66
2019-05-25T19:21:23.529Z,97366.80
2019-05-25T19:23:53.541Z,97372.97
2019-05-25T19:26:23.538Z,97376.72
2019-05-25T19:28:53.658Z,97376.69
2019-05-25T19:31:23.667Z,97382.34
2019-05-25T19:33:53.719Z,97378.06
2019-05-25T19:36:24.241Z,97384.23
2019-05-25T19:38:53.884Z,97390.48
2019-05-25T19:41:23.788Z,97392.70
2019-05-25T19:43:53.812Z,97391.88
2019-05-25T19:46:23.749Z,97391.66
2019-05-25T19:48:54.088Z,97397.02
2019-05-25T19:51:23.881Z,97396.83
2019-05-25T19:53:53.884Z,97393.87
2019-05-25T19:56:23.945Z,97398.84
2019-05-25T19:58:54.032Z,97399.83
2019-05-25T20:01:24.105Z,97399.48
2019-05-25T20:03:57.280Z,97395.05
2019-05-25T20:06:25.541Z,97395.17
2019-05-25T20:08:55.255Z,97393.81
2019-05-25T20:11:24.635Z,97395.08
2019-05-25T20:13:54.184Z,97405.55
2019-05-25T20:16:25.224Z,97396.84
2019-05-25T20:18:55.823Z,97400.84
2019-05-25T20:21:25.216Z,97393.31
2019-05-25T20:23:54.610Z,97396.80
2019-05-25T20:26:24.375Z,97397.31
2019-05-25T20:28:54.421Z,97398.76
2019-05-25T20:31:24.404Z,97397.29
2019-05-25T20:33:54.533Z,97394.94
2019-05-25T20:36:24.559Z,97399.53
2019-05-25T20:38:54.576Z,97399.70
2019-05-25T20:41:24.669Z,97398.31
2019-05-25T20:43:54.616Z,97400.96
2019-05-25T20:46:24.645Z,97400.78
2019-05-25T20:48:54.732Z,97411.31
2019-05-25T20:51:24.879Z,97403.97
2019-05-25T20:53:54.842Z,97416.26
2019-05-25T20:56:24.810Z,97419.34
2019-05-25T20:58:55.157Z,97414.16
2019-05-25T21:01:25.018Z,97410.89
2019-05-25T21:03:54.931Z,97418.59
2019-05-25T21:06:24.938Z,97421.11
2019-05-25T21:08:55.016Z,97418.91
2019-05-25T21:11:24.979Z,97423.87
2019-05-25T21:13:54.970Z,97423.84
2019-05-25T21:16:25.154Z,97422.17
2019-05-25T21:18:54.499Z,97431.95
2019-05-25T21:21:23.992Z,97429.88
2019-05-25T21:23:53.474Z,97437.30
2019-05-25T21:26:22.853Z,97437.86
2019-05-25T21:28:54.045Z,97433.87
2019-05-25T21:31:24.121Z,97436.45
2019-05-25T21:33:53.469Z,97439.16
2019-05-25T21:36:22.854Z,97440.86
2019-05-25T21:38:52.229Z,97431.02
2019-05-25T21:41:21.659Z,97446.97
2019-05-25T21:43:51.043Z,97451.44
2019-05-25T21:46:20.499Z,97448.73
2019-05-25T21:48:51.683Z,97452.25
2019-05-25T21:51:22.825Z,97455.24
2019-05-25T21:53:52.263Z,97454.23
2019-05-25T21:56:21.693Z,97462.33
2019-05-25T21:58:51.170Z,97458.30
2019-05-25T22:01:20.801Z,97463.20
2019-05-25T22:03:50.171Z,97454.60
2019-05-25T22:06:24.538Z,97456.93
2019-05-25T22:08:52.775Z,97463.29
2019-05-25T22:11:22.161Z,97457.50
2019-05-25T22:13:51.545Z,97464.59
2019-05-25T22:16:20.932Z,97462.45
2019-05-25T22:18:50.331Z,97459.64
2019-05-25T22:21:19.702Z,97452.91
2019-05-25T22:23:49.080Z,97453.09
2019-05-25T22:26:18.479Z,97447.02
2019-05-25T22:28:47.858Z,97453.31
2019-05-25T22:31:17.633Z,97445.74
2019-05-25T22:33:47.975Z,97449.39
2019-05-25T22:36:18.219Z,97449.33
2019-05-25T22:38:49.408Z,97445.80
2019-05-25T22:41:20.045Z,97448.24
2019-05-25T22:43:50.743Z,97443.03
2019-05-25T22:46:20.126Z,97440.49
2019-05-25T22:48:50.567Z,97444.95
2019-05-25T22:51:19.956Z,97441.80
2019-05-25T22:53:49.882Z,97443.69
2019-05-25T22:56:20.080Z,97436.97
2019-05-25T22:58:50.393Z,97444.05
2019-05-25T23:01:20.592Z,97442.84
2019-05-25T23:03:51.124Z,97449.58
2019-05-25T23:06:21.173Z,97443.66
2019-05-25T23:08:51.504Z,97442.77
2019-05-25T23:11:21.622Z,97445.35
2019-05-25T23:13:51.893Z,97442.48
2019-05-25T23:16:22.065Z,97436.50
2019-05-25T23:18:52.517Z,97438.70
2019-05-25T23:21:22.701Z,97428.59
2019-05-25T23:23:52.832Z,97428.59
2019-05-25T23:26:23.164Z,97430.30
2019-05-25T23:28:53.477Z,97427.69
2019-05-25T23:31:24.821Z,97421.53
2019-05-25T23:33:54.276Z,97428.72
2019-05-25T23:36:24.186Z,97421.88
2019-05-25T23:38:54.550Z,97424.98
2019-05-25T23:41:24.595Z,97424.53
2019-05-25T23:43:55.039Z,97427.46
2019-05-25T23:46:25.291Z,97426.34
2019-05-25T23:48:55.514Z,97429.50
2019-05-25T23:51:25.701Z,97428.78
2019-05-25T23:53:56.047Z,97428.53
2019-05-25T23:56:26.288Z,97429.97
2019-05-25T23:58:56.507Z,97426.04
